Terminal Aerodrome Forecast
Issued by NWS

Home | Current Version | Previous Version | Text Only | Print | Product List | Glossary Off
Versions: 1 2 3 4 5 6 7 8 9 10 11 12 13 14 15 16 17 18 19

000
FTUS43 KICT 270520
TAFSLN
TAF
KSLN 270520Z 2706/2806 04015G24KT P6SM BKN012 BKN050 OVC100
     FM271100 04010KT P6SM SCT015 BKN050
     FM271500 09006KT P6SM BKN050
     FM280300 17008KT P6SM BKN100=

USA.gov is the U.S. government's official web portal to all federal, state and local government web resources and services.